createdAt,value
2019-01-10T00:00:24.904Z,70.14
2019-01-10T00:02:53.733Z,69.65
2019-01-10T00:05:22.313Z,69.69
2019-01-10T00:07:50.800Z,69.41
2019-01-10T00:10:19.469Z,69.52
2019-01-10T00:12:47.942Z,69.29
2019-01-10T00:15:18.352Z,69.09
2019-01-10T00:17:47.056Z,68.91
2019-01-10T00:20:17.181Z,69.04
2019-01-10T00:22:46.118Z,69.02
2019-01-10T00:25:15.535Z,68.97
2019-01-10T00:27:50.327Z,69.07
2019-01-10T00:30:20.218Z,69.15
2019-01-10T00:32:48.830Z,68.94
2019-01-10T00:35:17.445Z,68.74
2019-01-10T00:37:46.134Z,68.61
2019-01-10T00:40:16.457Z,68.36
2019-01-10T00:42:49.478Z,68.46
2019-01-10T00:45:17.433Z,68.21
2019-01-10T00:47:46.451Z,68.40
2019-01-10T00:50:20.146Z,69.04
2019-01-10T00:52:48.832Z,69.52
2019-01-10T00:55:17.610Z,69.24
2019-01-10T00:57:46.362Z,69.26
2019-01-10T01:00:20.876Z,68.94
2019-01-10T01:02:49.559Z,68.94
2019-01-10T01:05:18.510Z,69.09
2019-01-10T01:07:47.181Z,69.17
2019-01-10T01:10:21.371Z,69.23
2019-01-10T01:12:58.229Z,69.17
2019-01-10T01:15:20.920Z,69.40
2019-01-10T01:17:49.358Z,69.63
2019-01-10T01:20:20.207Z,69.22
2019-01-10T01:22:48.821Z,69.42
2019-01-10T01:25:17.452Z,69.31
2019-01-10T01:27:45.987Z,69.55
2019-01-10T01:30:25.513Z,69.41
2019-01-10T01:32:55.366Z,69.92
2019-01-10T01:35:23.978Z,69.95
2019-01-10T01:37:52.606Z,70.39
2019-01-10T01:40:21.828Z,70.46
2019-01-10T01:42:50.469Z,70.70
2019-01-10T01:45:20.509Z,70.83
2019-01-10T01:47:49.213Z,70.69
2019-01-10T01:50:20.107Z,70.88
2019-01-10T01:52:48.660Z,71.26
2019-01-10T01:55:17.230Z,71.07
2019-01-10T01:57:45.869Z,71.26
2019-01-10T02:00:19.923Z,71.38
2019-01-10T02:02:48.443Z,71.19
2019-01-10T02:05:17.516Z,71.56
2019-01-10T02:07:46.078Z,71.45
2019-01-10T02:10:17.970Z,70.64
2019-01-10T02:12:46.502Z,70.67
2019-01-10T02:15:15.289Z,70.95
2019-01-10T02:17:48.771Z,70.55
2019-01-10T02:20:15.725Z,71.23
2019-01-10T02:22:44.526Z,70.89
2019-01-10T02:25:19.349Z,70.96
2019-01-10T02:27:48.026Z,71.11
2019-01-10T02:30:21.923Z,71.29
2019-01-10T02:32:50.475Z,71.29
2019-01-10T02:35:19.102Z,70.78
2019-01-10T02:37:48.001Z,70.53
2019-01-10T02:40:16.577Z,70.98
2019-01-10T02:42:45.201Z,70.34
2019-01-10T02:45:15.976Z,70.02
2019-01-10T02:47:45.938Z,69.61
2019-01-10T02:50:20.104Z,69.92
2019-01-10T02:52:48.722Z,69.86
2019-01-10T02:55:17.630Z,69.91
2019-01-10T02:57:46.169Z,69.89
2019-01-10T03:00:22.546Z,70.12
2019-01-10T03:02:51.161Z,69.67
2019-01-10T03:05:20.059Z,69.40
2019-01-10T03:07:48.765Z,68.68
2019-01-10T03:10:20.291Z,69.00
2019-01-10T03:12:48.754Z,68.46
2019-01-10T03:15:17.544Z,68.49
2019-01-10T03:17:46.108Z,68.72
2019-01-10T03:20:17.905Z,68.53
2019-01-10T03:22:46.560Z,68.42
2019-01-10T03:25:15.212Z,67.67
2019-01-10T03:27:43.782Z,67.19
2019-01-10T03:30:15.089Z,67.18
2019-01-10T03:32:43.980Z,66.63
2019-01-10T03:35:14.707Z,67.11
2019-01-10T03:37:44.385Z,66.67
2019-01-10T03:40:15.530Z,66.33
2019-01-10T03:42:46.082Z,66.47
2019-01-10T03:45:18.046Z,66.64
2019-01-10T03:47:59.630Z,66.99
2019-01-10T03:50:28.101Z,66.41
2019-01-10T03:52:56.571Z,66.28
2019-01-10T03:55:26.383Z,65.51
2019-01-10T03:57:54.894Z,66.04
2019-01-10T04:00:24.107Z,65.48
2019-01-10T04:02:52.670Z,65.37
2019-01-10T04:05:21.598Z,65.34
2019-01-10T04:07:50.329Z,65.55
2019-01-10T04:10:19.123Z,65.16
2019-01-10T04:12:47.756Z,64.91
2019-01-10T04:15:18.383Z,64.95
2019-01-10T04:17:48.349Z,64.84
2019-01-10T04:20:19.703Z,64.19
2019-01-10T04:22:48.219Z,64.87
2019-01-10T04:25:16.908Z,64.54
2019-01-10T04:27:46.413Z,64.37
2019-01-10T04:30:17.256Z,64.91
2019-01-10T04:32:45.844Z,64.68
2019-01-10T04:35:14.513Z,64.33
2019-01-10T04:37:42.984Z,63.74
2019-01-10T04:40:16.866Z,64.09
2019-01-10T04:42:45.310Z,63.36
2019-01-10T04:45:14.113Z,63.93
2019-01-10T04:47:43.870Z,63.74
2019-01-10T04:50:14.733Z,64.03
2019-01-10T04:52:46.367Z,64.01
2019-01-10T04:55:15.056Z,64.10
2019-01-10T04:57:43.772Z,64.08
2019-01-10T05:00:15.587Z,64.07
2019-01-10T05:02:44.187Z,63.83
2019-01-10T05:05:12.632Z,64.41
2019-01-10T05:07:41.144Z,64.41
2019-01-10T05:10:11.138Z,64.71
2019-01-10T05:12:41.743Z,65.36
2019-01-10T05:15:14.836Z,64.53
2019-01-10T05:17:43.407Z,64.56
2019-01-10T05:20:14.932Z,65.02
2019-01-10T05:22:43.401Z,64.56
2019-01-10T05:25:12.179Z,65.03
2019-01-10T05:27:40.647Z,64.83
2019-01-10T05:30:18.336Z,65.11
2019-01-10T05:32:48.171Z,64.70
2019-01-10T05:35:16.710Z,64.59
2019-01-10T05:37:45.244Z,64.47
2019-01-10T05:40:14.264Z,64.83
2019-01-10T05:42:42.755Z,64.65
2019-01-10T05:45:13.654Z,64.78
2019-01-10T05:47:43.222Z,64.96
2019-01-10T05:50:17.710Z,64.79
2019-01-10T05:52:46.173Z,64.34
2019-01-10T05:55:17.216Z,63.96
2019-01-10T05:57:45.726Z,64.37
2019-01-10T06:00:19.901Z,64.81
2019-01-10T06:02:48.357Z,65.01
2019-01-10T06:05:16.943Z,64.22
2019-01-10T06:07:45.571Z,64.61
2019-01-10T06:10:19.343Z,64.85
2019-01-10T06:12:47.794Z,65.11
2019-01-10T06:15:16.699Z,64.30
2019-01-10T06:17:45.218Z,64.72
2019-01-10T06:20:18.991Z,65.06
2019-01-10T06:22:47.533Z,65.53
2019-01-10T06:25:16.177Z,65.66
2019-01-10T06:27:44.698Z,65.57
2019-01-10T06:30:18.843Z,66.32
2019-01-10T06:32:47.346Z,66.55
2019-01-10T06:35:15.796Z,67.13
2019-01-10T06:37:47.554Z,67.17
2019-01-10T06:40:18.558Z,67.41
2019-01-10T06:42:47.010Z,67.26
2019-01-10T06:45:17.166Z,67.05
2019-01-10T06:47:46.170Z,67.29
2019-01-10T06:50:16.368Z,67.11
2019-01-10T06:52:44.984Z,66.89
2019-01-10T06:55:13.744Z,67.15
2019-01-10T06:57:42.207Z,66.42
2019-01-10T07:00:16.734Z,66.84
2019-01-10T07:02:48.468Z,66.51
2019-01-10T07:05:16.968Z,66.91
2019-01-10T07:07:45.691Z,66.45
2019-01-10T07:10:17.411Z,66.45
2019-01-10T07:12:45.976Z,66.14
2019-01-10T07:15:14.872Z,66.66
2019-01-10T07:17:45.030Z,66.71
2019-01-10T07:20:14.001Z,66.64
2019-01-10T07:22:49.231Z,66.91
2019-01-10T07:25:18.137Z,67.14
2019-01-10T07:27:48.067Z,67.16
2019-01-10T07:30:19.761Z,66.27
2019-01-10T07:32:48.295Z,66.79
2019-01-10T07:35:16.868Z,66.47
2019-01-10T07:37:51.499Z,66.46
2019-01-10T07:40:21.693Z,66.34
2019-01-10T07:45:24.201Z,65.91
2019-01-10T07:47:53.140Z,66.47
2019-01-10T07:50:26.615Z,65.94
2019-01-10T07:52:55.199Z,66.04
2019-01-10T07:55:23.865Z,65.88
2019-01-10T07:57:52.326Z,65.18
2019-01-10T08:00:20.950Z,65.51
2019-01-10T08:02:49.498Z,65.51
2019-01-10T08:05:18.003Z,64.92
2019-01-10T08:07:46.591Z,65.01
2019-01-10T08:10:16.810Z,65.43
2019-01-10T08:12:45.548Z,64.48
2019-01-10T08:15:17.047Z,64.32
2019-01-10T08:17:45.623Z,63.82
2019-01-10T08:20:14.450Z,64.13
2019-01-10T08:22:43.495Z,64.33
2019-01-10T08:25:12.661Z,64.53
2019-01-10T08:27:42.712Z,64.82
2019-01-10T08:30:16.930Z,65.05
2019-01-10T08:32:45.401Z,64.74
2019-01-10T08:35:16.627Z,64.99
2019-01-10T08:37:45.090Z,65.06
2019-01-10T08:40:13.654Z,65.23
2019-01-10T08:42:42.182Z,65.32
2019-01-10T08:45:21.091Z,65.23
2019-01-10T08:47:42.026Z,65.44
2019-01-10T08:50:16.133Z,65.85
2019-01-10T08:52:45.030Z,66.24
2019-01-10T08:55:13.536Z,66.55
2019-01-10T08:57:41.989Z,66.46
2019-01-10T09:00:13.982Z,66.96
2019-01-10T09:02:42.441Z,66.78
2019-01-10T09:05:12.262Z,67.19
2019-01-10T09:07:42.471Z,67.30
2019-01-10T09:10:24.778Z,67.13
2019-01-10T09:12:53.419Z,67.62
2019-01-10T09:15:25.239Z,66.81
2019-01-10T09:17:52.133Z,67.12
2019-01-10T09:20:20.743Z,66.76
2019-01-10T09:22:49.163Z,66.27
2019-01-10T09:25:17.950Z,66.71
2019-01-10T09:27:46.701Z,66.71
2019-01-10T09:30:17.795Z,67.24
2019-01-10T09:32:48.356Z,67.66
2019-01-10T09:35:17.154Z,67.35
2019-01-10T09:37:45.996Z,67.32
2019-01-10T09:40:21.744Z,66.59
2019-01-10T09:42:50.335Z,66.78
2019-01-10T09:45:21.386Z,67.19
2019-01-10T09:47:49.815Z,66.80
2019-01-10T09:50:20.725Z,66.49
2019-01-10T09:52:49.471Z,66.65
2019-01-10T09:55:18.032Z,66.31
2019-01-10T09:57:49.299Z,66.36
2019-01-10T10:00:22.133Z,66.04
2019-01-10T10:02:50.561Z,66.56
2019-01-10T10:05:55.494Z,66.85
2019-01-10T10:08:26.733Z,65.89
2019-01-10T10:10:56.815Z,66.44
2019-01-10T10:13:25.328Z,66.62
2019-01-10T10:15:53.822Z,66.63
2019-01-10T10:18:22.794Z,66.30
2019-01-10T10:20:51.304Z,66.80
2019-01-10T10:23:26.707Z,66.95
2019-01-10T10:25:50.010Z,67.47
2019-01-10T10:28:18.505Z,66.98
2019-01-10T10:30:47.147Z,66.38
2019-01-10T10:33:15.647Z,66.52
2019-01-10T10:35:44.078Z,66.42
2019-01-10T10:38:12.627Z,66.37
2019-01-10T10:40:41.252Z,66.17
2019-01-10T10:43:09.677Z,66.29
2019-01-10T10:45:38.179Z,65.82
2019-01-10T10:48:06.687Z,65.83
2019-01-10T10:50:35.227Z,65.95
2019-01-10T10:53:04.897Z,66.20
2019-01-10T10:55:33.486Z,66.40
2019-01-10T10:58:02.078Z,66.35
2019-01-10T11:00:30.941Z,65.89
2019-01-10T11:02:59.611Z,66.00
2019-01-10T11:05:28.178Z,65.95
2019-01-10T11:07:56.777Z,65.18
2019-01-10T11:10:25.313Z,63.91
2019-01-10T11:12:54.143Z,64.24
2019-01-10T11:15:22.727Z,63.92
2019-01-10T11:17:51.338Z,64.57
2019-01-10T11:20:21.897Z,64.75
2019-01-10T11:22:50.684Z,63.44
2019-01-10T11:25:21.595Z,63.41
2019-01-10T11:27:50.167Z,63.89
2019-01-10T11:30:20.341Z,64.82
2019-01-10T11:32:48.929Z,65.54
2019-01-10T11:35:17.610Z,65.10
2019-01-10T11:37:46.151Z,64.63
2019-01-10T11:40:17.316Z,64.24
2019-01-10T11:42:45.797Z,64.42
2019-01-10T11:45:19.821Z,63.77
2019-01-10T11:47:48.411Z,63.28
2019-01-10T11:50:17.400Z,63.08
2019-01-10T11:52:46.375Z,63.15
2019-01-10T11:55:15.627Z,62.82
2019-01-10T11:57:44.806Z,62.41
2019-01-10T12:00:21.889Z,62.29
2019-01-10T12:02:50.593Z,62.71
2019-01-10T12:05:19.029Z,63.20
2019-01-10T12:07:47.549Z,63.73
2019-01-10T12:10:16.090Z,64.18
2019-01-10T12:12:44.625Z,64.32
2019-01-10T12:15:13.588Z,65.14
2019-01-10T12:17:44.838Z,65.51
2019-01-10T12:20:17.902Z,65.75
2019-01-10T12:22:47.129Z,65.50
2019-01-10T12:25:17.432Z,65.18
2019-01-10T12:27:46.310Z,64.30
2019-01-10T12:30:17.858Z,63.93
2019-01-10T12:32:46.439Z,64.14
2019-01-10T12:35:14.999Z,64.06
2019-01-10T12:37:43.515Z,64.42
2019-01-10T12:40:14.099Z,64.47
2019-01-10T12:42:47.912Z,65.21
2019-01-10T12:45:18.470Z,65.01
2019-01-10T12:47:47.093Z,64.99
2019-01-10T12:50:18.447Z,65.17
2019-01-10T12:52:46.944Z,65.74
2019-01-10T12:55:15.488Z,66.01
2019-01-10T12:57:44.091Z,66.84
2019-01-10T13:00:15.670Z,66.57
2019-01-10T13:02:44.214Z,66.12
2019-01-10T13:05:13.147Z,66.15
2019-01-10T13:07:41.864Z,66.46
2019-01-10T13:10:15.949Z,66.05
2019-01-10T13:12:44.580Z,65.54
2019-01-10T13:15:15.903Z,65.27
2019-01-10T13:17:44.824Z,65.46
2019-01-10T13:20:13.571Z,65.04
2019-01-10T13:22:42.163Z,65.56
2019-01-10T13:25:15.959Z,65.34
2019-01-10T13:27:44.586Z,64.72
2019-01-10T13:30:16.348Z,65.04
2019-01-10T13:32:44.907Z,65.12
2019-01-10T13:35:13.594Z,65.27
2019-01-10T13:37:42.191Z,65.35
2019-01-10T13:40:12.479Z,64.95
2019-01-10T13:42:41.468Z,64.85
2019-01-10T13:45:12.336Z,64.46
2019-01-10T13:47:41.217Z,64.30
2019-01-10T13:50:16.067Z,64.65
2019-01-10T13:52:44.603Z,64.60
2019-01-10T13:55:15.931Z,64.11
2019-01-10T13:57:44.933Z,64.14
2019-01-10T14:00:16.900Z,64.55
2019-01-10T14:02:45.544Z,64.71
2019-01-10T14:05:14.124Z,64.08
2019-01-10T14:07:42.696Z,63.80
2019-01-10T14:10:13.911Z,63.80
2019-01-10T14:12:42.533Z,63.77
2019-01-10T14:15:17.225Z,63.90
2019-01-10T14:17:45.730Z,63.54
2019-01-10T14:20:15.242Z,64.15
2019-01-10T14:22:43.797Z,64.27
2019-01-10T14:25:12.375Z,64.28
2019-01-10T14:27:40.965Z,64.52
2019-01-10T14:30:18.700Z,64.38
2019-01-10T14:32:47.387Z,64.39
2019-01-10T14:35:15.988Z,64.43
2019-01-10T14:37:44.676Z,64.19
2019-01-10T14:40:13.574Z,64.31
2019-01-10T14:42:42.147Z,64.58
2019-01-10T14:45:15.913Z,64.42
2019-01-10T14:47:44.517Z,64.53
2019-01-10T14:50:13.924Z,64.62
2019-01-10T14:52:42.451Z,65.18
2019-01-10T14:55:15.105Z,65.36
2019-01-10T14:57:43.732Z,65.12
2019-01-10T15:00:17.905Z,65.02
2019-01-10T15:02:46.477Z,65.24
2019-01-10T15:05:15.016Z,64.96
2019-01-10T15:07:43.550Z,65.78
2019-01-10T15:10:12.372Z,65.65
2019-01-10T15:12:41.966Z,66.14
2019-01-10T15:15:13.707Z,65.83
2019-01-10T15:17:42.369Z,66.31
2019-01-10T15:20:17.046Z,66.67
2019-01-10T15:22:45.499Z,66.83
2019-01-10T15:25:14.303Z,66.77
2019-01-10T15:27:42.835Z,66.76
2019-01-10T15:30:17.060Z,66.70
2019-01-10T15:32:45.636Z,66.90
2019-01-10T15:35:14.955Z,66.62
2019-01-10T15:37:43.467Z,66.28
2019-01-10T15:40:15.142Z,66.82
2019-01-10T15:42:43.704Z,66.32
2019-01-10T15:45:15.615Z,66.22
2019-01-10T15:47:45.796Z,66.83
2019-01-10T15:50:16.986Z,66.79
2019-01-10T15:52:45.630Z,66.61
2019-01-10T15:55:16.707Z,66.98
2019-01-10T15:57:45.249Z,66.87
2019-01-10T16:00:22.733Z,67.03
2019-01-10T16:02:51.814Z,67.31
2019-01-10T16:05:20.366Z,67.51
2019-01-10T16:07:49.197Z,67.79
2019-01-10T16:10:21.779Z,68.31
2019-01-10T16:12:50.695Z,68.15
2019-01-10T16:15:23.955Z,68.17
2019-01-10T16:17:52.879Z,68.48
2019-01-10T16:20:21.601Z,68.49
2019-01-10T16:22:50.149Z,69.13
2019-01-10T16:25:20.018Z,69.21
2019-01-10T16:27:48.587Z,69.67
2019-01-10T16:30:22.536Z,69.66
2019-01-10T16:32:55.228Z,69.69
2019-01-10T16:35:23.891Z,69.83
2019-01-10T16:37:52.732Z,70.06
2019-01-10T16:40:21.641Z,70.36
2019-01-10T16:42:50.330Z,70.84
2019-01-10T16:45:21.947Z,70.52
2019-01-10T16:47:50.480Z,70.48
2019-01-10T16:50:19.043Z,70.70
2019-01-10T16:52:47.680Z,70.74
2019-01-10T16:55:16.723Z,70.38
2019-01-10T16:57:45.372Z,70.63
2019-01-10T17:00:19.700Z,70.47
2019-01-10T17:02:49.837Z,70.06
2019-01-10T17:05:20.512Z,69.95
2019-01-10T17:07:48.953Z,69.88
2019-01-10T17:10:20.831Z,70.52
2019-01-10T17:12:49.494Z,71.50
2019-01-10T17:15:18.073Z,71.49
2019-01-10T17:17:46.534Z,71.27
2019-01-10T17:20:20.845Z,71.69
2019-01-10T17:22:49.575Z,72.03
2019-01-10T17:25:18.606Z,72.19
2019-01-10T17:27:47.312Z,72.10
2019-01-10T17:30:21.999Z,72.84
2019-01-10T17:32:50.825Z,73.00
2019-01-10T17:35:23.401Z,73.40
2019-01-10T17:37:52.009Z,72.87
2019-01-10T17:40:22.221Z,73.74
2019-01-10T17:42:50.969Z,73.76
2019-01-10T17:45:22.382Z,74.56
2019-01-10T17:47:50.926Z,74.78
2019-01-10T17:50:20.228Z,74.83
2019-01-10T17:52:48.826Z,74.86
2019-01-10T17:55:17.399Z,74.51
2019-01-10T17:57:45.961Z,76.12
2019-01-10T18:00:17.282Z,75.77
2019-01-10T18:02:45.730Z,75.52
2019-01-10T18:05:14.488Z,75.14
2019-01-10T18:07:43.036Z,75.06
2019-01-10T18:10:17.479Z,75.45
2019-01-10T18:12:46.107Z,76.50
2019-01-10T18:15:20.398Z,76.54
2019-01-10T18:17:50.398Z,75.88
2019-01-10T18:20:25.001Z,76.18
2019-01-10T18:22:53.609Z,76.75
2019-01-10T18:25:23.291Z,77.24
2019-01-10T18:27:51.839Z,76.95
2019-01-10T18:30:22.843Z,77.23
2019-01-10T18:32:51.545Z,77.05
2019-01-10T18:35:26.032Z,78.66
2019-01-10T18:37:51.021Z,77.55
2019-01-10T18:40:20.241Z,77.29
2019-01-10T18:42:48.853Z,78.12
2019-01-10T18:45:26.226Z,78.84
2019-01-10T18:47:57.302Z,78.44
2019-01-10T18:50:26.016Z,78.06
2019-01-10T18:52:54.558Z,78.00
2019-01-10T18:55:23.861Z,77.91
2019-01-10T18:57:52.523Z,77.40
2019-01-10T19:00:26.095Z,77.65
2019-01-10T19:02:55.274Z,77.58
2019-01-10T19:05:23.870Z,77.61
2019-01-10T19:07:52.479Z,77.45
2019-01-10T19:10:22.956Z,78.14
2019-01-10T19:12:51.682Z,78.17
2019-01-10T19:15:20.519Z,78.69
2019-01-10T19:17:49.087Z,78.61
2019-01-10T19:20:25.677Z,78.39
2019-01-10T19:22:55.063Z,78.42
2019-01-10T19:25:23.589Z,78.87
2019-01-10T19:27:52.233Z,79.51
2019-01-10T19:30:26.702Z,79.70
2019-01-10T19:32:55.513Z,79.31
2019-01-10T19:35:24.190Z,79.43
2019-01-10T19:37:55.839Z,79.75
2019-01-10T19:40:26.059Z,79.97
2019-01-10T19:42:54.689Z,79.43
2019-01-10T19:45:23.869Z,79.89
2019-01-10T19:47:52.843Z,81.00
2019-01-10T19:50:25.644Z,81.18
2019-01-10T19:52:54.375Z,81.16
2019-01-10T19:55:23.720Z,81.23
2019-01-10T19:57:52.669Z,81.55
2019-01-10T20:00:27.519Z,81.60
2019-01-10T20:02:56.321Z,81.26
2019-01-10T20:05:24.882Z,81.11
2019-01-10T20:07:53.587Z,81.00
2019-01-10T20:10:22.152Z,81.10
2019-01-10T20:12:51.130Z,81.24
2019-01-10T20:15:21.329Z,80.87
2019-01-10T20:17:50.198Z,81.01
2019-01-10T20:20:28.133Z,82.12
2019-01-10T20:22:58.009Z,81.67
2019-01-10T20:25:26.908Z,82.19
2019-01-10T20:27:56.044Z,81.60
2019-01-10T20:30:24.908Z,81.64
2019-01-10T20:32:53.654Z,81.96
2019-01-10T20:35:22.606Z,82.67
2019-01-10T20:38:03.318Z,82.70
2019-01-10T20:40:35.605Z,83.22
2019-01-10T20:43:07.778Z,82.72
2019-01-10T20:45:36.286Z,82.39
2019-01-10T20:48:05.083Z,82.62
2019-01-10T20:50:33.858Z,82.44
2019-01-10T20:53:05.687Z,82.80
2019-01-10T20:55:34.704Z,83.06
2019-01-10T20:58:03.706Z,83.07
2019-01-10T21:00:32.549Z,82.43
2019-01-10T21:03:01.237Z,82.78
2019-01-10T21:05:30.187Z,82.39
2019-01-10T21:07:59.748Z,83.49
2019-01-10T21:10:29.154Z,83.32
2019-01-10T21:12:59.019Z,83.07
2019-01-10T21:15:33.388Z,82.73
2019-01-10T21:18:02.537Z,83.19
2019-01-10T21:20:31.381Z,83.20
2019-01-10T21:23:03.095Z,82.85
2019-01-10T21:25:31.919Z,82.95
2019-01-10T21:28:01.409Z,83.13
2019-01-10T21:30:32.554Z,83.46
2019-01-10T21:33:01.957Z,83.74
2019-01-10T21:35:33.784Z,84.04
2019-01-10T21:38:06.463Z,83.74
2019-01-10T21:40:35.285Z,83.51
2019-01-10T21:43:04.394Z,84.20
2019-01-10T21:45:33.646Z,84.05
2019-01-10T21:48:02.801Z,84.16
2019-01-10T21:50:33.964Z,83.60
2019-01-10T21:53:04.595Z,83.94
2019-01-10T21:55:33.772Z,84.41
2019-01-10T21:58:04.014Z,84.12
2019-01-10T22:00:34.139Z,84.62
2019-01-10T22:03:03.173Z,84.31
2019-01-10T22:05:32.121Z,84.63
2019-01-10T22:08:04.248Z,84.52
2019-01-10T22:10:36.196Z,84.33
2019-01-10T22:13:08.171Z,84.78
2019-01-10T22:15:40.246Z,84.79
2019-01-10T22:18:09.096Z,84.78
2019-01-10T22:20:39.509Z,85.15
2019-01-10T22:23:08.333Z,84.59
2019-01-10T22:25:37.281Z,84.79
2019-01-10T22:28:08.021Z,85.01
2019-01-10T22:30:36.799Z,85.19
2019-01-10T22:33:06.091Z,84.49
2019-01-10T22:35:34.818Z,85.69
2019-01-10T22:38:03.568Z,85.49
2019-01-10T22:40:33.853Z,85.32
2019-01-10T22:43:02.871Z,85.55
2019-01-10T22:45:31.682Z,85.47
2019-01-10T22:48:00.671Z,85.20
2019-01-10T22:50:30.751Z,84.88
2019-01-10T22:52:59.803Z,84.67
2019-01-10T22:55:28.659Z,84.26
2019-01-10T22:57:57.130Z,84.38
2019-01-10T23:00:54.619Z,84.07
2019-01-10T23:03:23.341Z,83.90
2019-01-10T23:05:52.199Z,83.57
2019-01-10T23:08:24.591Z,83.56
2019-01-10T23:10:53.303Z,83.49
2019-01-10T23:13:21.884Z,83.39
2019-01-10T23:15:51.872Z,83.36
2019-01-10T23:18:20.483Z,83.33
2019-01-10T23:20:54.631Z,83.23
2019-01-10T23:23:23.252Z,83.32
2019-01-10T23:25:55.423Z,83.28
2019-01-10T23:28:24.150Z,83.21
2019-01-10T23:30:58.042Z,83.21
2019-01-10T23:33:27.367Z,83.08
2019-01-10T23:36:00.844Z,83.25
2019-01-10T23:38:29.952Z,83.22
2019-01-10T23:40:58.962Z,83.25
2019-01-10T23:43:27.470Z,83.23
2019-01-10T23:45:56.197Z,83.28
2019-01-10T23:48:24.889Z,83.11
2019-01-10T23:50:53.455Z,83.46
2019-01-10T23:53:22.037Z,83.31
2019-01-10T23:55:50.676Z,83.04
2019-01-10T23:58:19.321Z,83.12
